EDAC/ADC METAR and TAF weather

Enter ICAO airport designator
Station Type Date Time Source
EDAC METAR 2020/09/24 10:50 UTC NOAA

EDAC 241050Z 22013KT 9999 BKN039 21/11 Q1006


Station Type Date Time Source
EDAC Decoded METAR 2020/09/24 10:50 UTC NOAA

Altenburg Nobitz, Germany (EDAC) 50-58N 012-30E
Sep 24, 2020 - 06:50 AM EDT / 2020.09.24 1050 UTC
Wind: from the SW (220 degrees) at 15 MPH (13 KT):0
Visibility: greater than 7 mile(s):0
Sky conditions: mostly cloudy
Temperature: 69 F (21 C)
Dew Point: 51 F (11 C)
Relative Humidity: 52%
Pressure (altimeter): 29.71 in. Hg (1006 hPa)
ob: EDAC 241050Z 22013KT 9999 BKN039 21/11 Q1006
cycle: 11

Station Type Date Time Source
EDAC TAF UTC NOAA

Error!

Example: see airport list